Latest Weather Observations for Cape Nelson

IDV60801

Issued at 2:05 pm EST Wednesday 16 April 2014 (issued every 30 minutes, with the page automatically refreshed every 10 minutes)

About weather observations | Map of weather stations | Latest weather observations for VIC | Other Formats
Station Details ID: 090184 Name: CAPE NELSON LIGHTHOUSE Lat: -38.43 Lon: 141.54 Height: 45.4 m
Data from the previous 72 hours. | See also: Recent months at Cape Nelson
Date/Time
EST
Temp
°C
App
Temp
°C
Dew
Point
Rel
Hum
%
Delta-T
°C
Wind Press
QNH
hPa
Press
MSL
hPa
Rain
since 9 am
mm
Dir
 
Spd
km/h
Gust
km/h
Spd
kts
Gust
kts
16/02:00pm 16.2 13.9 11.6 74 2.5 W 15 20 8 11 1019.0 - 0.0
16/01:30pm 17.1 15.5 12.8 76 2.4 W 13 19 7 10 1018.9 - 0.0
16/01:00pm 16.8 15.1 12.3 75 2.5 WNW 13 17 7 9 1019.0 - 0.0
16/12:30pm 17.5 15.8 11.1 66 3.5 W 11 15 6 8 1019.4 - 0.0
16/12:00pm 16.8 16.3 12.7 77 2.3 W 7 11 4 6 1019.7 1019.7 0.0
16/11:30am 17.2 15.7 11.9 71 2.9 N 11 17 6 9 1019.8 - 0.0
16/11:00am 15.9 13.8 11.3 74 2.5 N 13 19 7 10 1019.8 - 0.0
16/10:30am 15.9 14.2 12.5 80 1.9 NNE 13 19 7 10 1019.8 - 0.0
16/10:00am 15.2 12.7 12.3 83 1.6 NE 17 22 9 12 1020.1 - 0.0
16/09:30am 14.6 11.6 11.9 84 1.5 NE 19 22 10 12 1020.4 - 0.0
16/09:00am 14.2 11.0 11.9 86 1.2 NE 20 26 11 14 1020.4 1020.4 0.2
16/08:30am 13.6 10.5 11.5 87 1.1 NNE 19 26 10 14 1020.5 - 0.2
16/08:00am 12.8 8.9 10.7 87 1.1 NE 22 28 12 15 1020.4 - 0.2
16/07:30am 12.6 9.0 10.5 87 1.1 NNE 20 28 11 15 1020.4 - 0.2
16/07:00am 12.7 9.3 10.6 87 1.1 NNE 19 28 10 15 1020.1 - 0.2
16/06:30am 12.7 9.3 10.6 87 1.1 NE 19 24 10 13 1020.0 - 0.2
16/06:00am 13.1 10.3 11.2 88 1.0 NE 17 22 9 12 1020.2 1020.2 0.2
16/05:30am 13.4 10.5 11.1 86 1.2 NE 17 22 9 12 1020.2 - 0.2
16/05:00am 13.5 10.2 11.0 85 1.3 NE 19 24 10 13 1020.1 - 0.2
16/04:30am 13.8 10.9 11.1 84 1.4 NE 17 22 9 12 1020.2 - 0.2
16/04:00am 14.0 11.1 11.0 82 1.6 NE 17 24 9 13 1020.6 - 0.2
16/03:30am 13.8 11.4 11.3 85 1.3 NE 15 22 8 12 1020.7 - 0.2
16/03:00am 13.5 10.7 11.2 86 1.2 NE 17 24 9 13 1021.0 1021.0 0.2
16/02:30am 13.9 11.2 11.6 86 1.2 NE 17 22 9 12 1021.5 - 0.2
16/02:00am 14.4 12.8 11.6 83 1.5 NE 11 19 6 10 1022.1 - 0.2
16/01:30am 15.0 12.2 11.4 79 1.9 E 17 28 9 15 1022.1 - 0.2
16/01:00am 14.8 11.4 10.6 76 2.2 E 19 24 10 13 1022.2 - 0.2
16/12:30am 14.9 11.3 10.5 75 2.3 E 20 28 11 15 1022.3 - 0.2
16/12:00am 14.8 11.5 10.8 77 2.1 E 19 28 10 15 1022.4 1022.4 0.2
 
Date/Time
EST
Temp
°C
App
Temp
°C
Dew
Point
Rel
Hum
%
Delta-T
°C
Wind Press
QNH
hPa
Press
MSL
hPa
Rain
since 9 am
mm
Dir
 
Spd
km/h
Gust
km/h
Spd
kts
Gust
kts
15/11:30pm 14.5 11.2 10.9 79 1.9 E 19 30 10 16 1022.7 - 0.2
15/11:00pm 14.5 11.1 11.1 80 1.8 E 20 30 11 16 1022.9 - 0.2
15/10:30pm 14.5 10.7 11.1 80 1.8 E 22 28 12 15 1023.4 - 0.2
15/10:00pm 14.6 10.8 11.2 80 1.8 E 22 30 12 16 1023.5 - 0.2
15/09:30pm 14.6 10.4 11.2 80 1.8 E 24 28 13 15 1023.4 - 0.2
15/09:00pm 14.5 10.7 11.1 80 1.8 E 22 30 12 16 1023.3 1023.3 0.2
15/08:30pm 14.5 10.6 10.9 79 1.9 ESE 22 28 12 15 1023.3 - 0.2
15/08:00pm 14.4 11.4 10.8 79 1.9 ESE 17 26 9 14 1023.4 - 0.2
15/07:30pm 14.3 11.6 10.5 78 2.0 ESE 15 24 8 13 1023.7 - 0.2
15/07:00pm 14.4 11.7 10.4 77 2.1 SE 15 24 8 13 1023.8 - 0.2
15/06:30pm 14.5 11.5 10.5 77 2.1 SE 17 24 9 13 1023.6 - 0.2
15/06:00pm 14.6 11.6 10.6 77 2.1 SE 17 26 9 14 1023.2 1023.2 0.2
15/05:30pm 14.9 12.0 10.9 77 2.1 SE 17 24 9 13 1023.1 - 0.2
15/05:00pm 15.3 11.9 11.1 76 2.2 SE 20 26 11 14 1023.2 - 0.2
15/04:30pm 15.7 12.4 11.5 76 2.3 SE 20 32 11 17 1023.1 - 0.2
15/04:00pm 15.7 12.4 11.5 76 2.3 SE 20 32 11 17 1023.0 - 0.2
15/03:30pm 16.2 13.4 11.2 72 2.7 ESE 17 24 9 13 1023.2 - 0.2
15/03:00pm 16.3 13.8 11.0 71 2.8 ESE 15 24 8 13 1023.2 1023.2 0.2
15/02:30pm 17.0 14.7 11.7 71 2.9 ESE 15 22 8 12 1023.3 - 0.2
15/02:00pm 17.1 14.4 11.8 71 2.9 ESE 17 26 9 14 1023.2 - 0.0
15/01:30pm 16.6 13.7 12.2 75 2.4 ESE 19 26 10 14 1023.6 - 0.0
15/01:00pm 16.4 14.2 12.0 75 2.4 ESE 15 24 8 13 1024.0 - 0.0
15/12:30pm 16.0 13.1 12.2 78 2.1 SE 19 26 10 14 1024.4 - 0.0
15/12:00pm 15.8 13.7 12.4 80 1.9 ESE 15 26 8 14 1024.8 1024.8 0.0
15/11:30am 16.2 14.1 12.4 78 2.1 ESE 15 24 8 13 1025.0 - 0.0
15/11:00am 16.1 14.0 12.3 78 2.1 ESE 15 22 8 12 1025.2 - 0.0
15/10:30am 15.7 13.1 12.1 79 2.0 ESE 17 24 9 13 1025.2 - 0.0
15/10:00am 15.4 12.9 12.3 82 1.7 ESE 17 24 9 13 1025.3 - 0.0
15/09:30am 15.1 12.7 12.6 85 1.4 ESE 17 26 9 14 1025.3 - 0.0
15/09:00am 14.7 11.9 12.7 88 1.1 ESE 19 26 10 14 1025.3 1025.3 0.6
15/08:30am 14.1 12.6 13.1 94 0.6 SE 13 17 7 9 1025.3 - 0.6
15/08:00am 14.2 11.6 13.1 93 0.6 ESE 19 28 10 15 1025.0 - 0.0
15/07:30am 14.2 12.3 12.9 92 0.7 ESE 15 24 8 13 1024.8 - 0.0
15/07:00am 14.5 12.2 13.0 91 0.8 SE 17 24 9 13 1024.6 - 0.0
15/06:30am 14.7 12.0 13.4 92 0.7 SE 20 30 11 16 1024.6 - 0.0
15/06:00am 14.8 12.6 13.3 91 0.8 SE 17 28 9 15 1024.5 1024.5 0.0
15/05:30am 14.9 12.6 13.1 89 1.0 SE 17 26 9 14 1024.4 - 0.0
15/05:00am 14.9 13.1 13.3 90 0.9 ESE 15 26 8 14 1024.2 - 0.0
15/04:30am 14.9 12.4 13.4 91 0.8 SE 19 28 10 15 1024.1 - 0.0
15/04:00am 15.3 13.3 12.8 85 1.4 ESE 15 24 8 13 1024.0 - 0.0
15/03:30am 15.2 13.3 13.1 87 1.2 ESE 15 22 8 12 1024.0 - 0.0
15/03:00am 15.2 13.4 13.2 88 1.1 ESE 15 24 8 13 1024.2 1024.2 0.0
15/02:30am 15.4 13.2 13.2 87 1.2 ESE 17 24 9 13 1024.4 - 0.0
15/02:00am 15.3 13.2 13.5 89 1.0 SE 17 24 9 13 1024.5 - 0.0
15/01:30am 15.3 12.8 13.5 89 1.0 SE 19 26 10 14 1024.4 - 0.0
15/01:00am 15.7 13.4 14.1 90 0.9 SSE 19 30 10 16 1024.5 - 0.0
15/12:30am 15.5 13.6 13.0 85 1.4 SE 15 20 8 11 1024.5 - 0.0
15/12:00am 15.6 14.0 12.7 83 1.6 ESE 13 19 7 10 1024.5 1024.5 0.0
 
Date/Time
EST
Temp
°C
App
Temp
°C
Dew
Point
Rel
Hum
%
Delta-T
°C
Wind Press
QNH
hPa
Press
MSL
hPa
Rain
since 9 am
mm
Dir
 
Spd
km/h
Gust
km/h
Spd
kts
Gust
kts
14/11:30pm 15.7 13.8 13.0 84 1.5 SE 15 20 8 11 1024.6 - 0.0
14/11:00pm 15.5 13.9 12.8 84 1.5 SE 13 22 7 12 1024.9 - 0.0
14/10:30pm 15.4 13.8 12.9 85 1.4 ESE 13 19 7 10 1025.1 - 0.0
14/10:00pm 15.4 13.8 12.7 84 1.5 ESE 13 20 7 11 1025.1 - 0.0
14/09:30pm 15.6 13.2 12.7 83 1.6 SE 17 26 9 14 1025.2 - 0.0
14/09:00pm 15.4 12.7 12.9 85 1.4 SSE 19 26 10 14 1025.0 1025.0 0.0
14/08:30pm 15.5 12.6 12.8 84 1.5 SE 20 26 11 14 1024.8 - 0.0
14/08:00pm 15.6 12.8 13.1 85 1.4 SSE 20 28 11 15 1024.8 - 0.0
14/07:30pm 15.5 13.0 13.5 88 1.1 SE 19 26 10 14 1024.8 - 0.0
14/07:00pm 15.4 12.4 12.7 84 1.5 SSE 20 26 11 14 1024.6 - 0.0
14/06:30pm 15.3 13.0 13.1 87 1.2 SE 17 24 9 13 1024.3 - 0.0
14/06:00pm 15.7 13.9 13.4 86 1.3 SE 15 22 8 12 1024.1 1024.1 0.0
14/05:30pm 16.2 13.1 12.2 77 2.2 SSE 20 26 11 14 1024.0 - 0.0
14/05:00pm 16.4 13.5 12.8 79 2.0 SSE 20 24 11 13 1023.9 - 0.0
14/04:30pm 16.5 13.5 12.5 77 2.2 SSE 20 26 11 14 1023.8 - 0.0
14/04:00pm 16.2 12.9 12.7 80 1.9 SSE 22 28 12 15 1023.9 - 0.0
14/03:30pm 16.5 13.7 13.2 81 1.8 S 20 26 11 14 1023.9 - 0.0
14/03:00pm 17.4 14.9 13.5 78 2.2 SSE 19 22 10 12 1023.7 1023.7 0.0
14/02:30pm 18.5 16.6 13.1 71 3.0 SE 15 20 8 11 1023.7 - 0.0
14/02:00pm 17.8 15.9 12.9 73 2.7 SE 15 19 8 10 1023.8 - 0.0
14/01:30pm 18.4 16.2 13.3 72 2.9 SSE 17 20 9 11 1024.1 - 0.0
14/01:00pm 18.6 16.9 13.7 73 2.8 SSE 15 20 8 11 1024.4 - 0.0
14/12:30pm 18.5 16.9 13.8 74 2.7 SSE 15 19 8 10 1024.7 - 0.0
14/12:00pm 18.1 16.8 13.8 76 2.4 SSE 13 17 7 9 1025.0 1025.0 0.0
14/11:30am 17.5 15.5 13.8 79 2.1 SSE 17 20 9 11 1025.2 - 0.0
14/11:00am 17.7 15.6 13.6 77 2.3 SSE 17 22 9 12 1025.3 - 0.0
14/10:30am 16.9 14.7 13.4 80 2.0 SSE 17 24 9 13 1025.3 - 0.0
14/10:00am 17.4 14.8 13.3 77 2.3 SSE 19 24 10 13 1025.3 - 0.0
14/09:30am 16.9 14.2 13.0 78 2.2 SSE 19 24 10 13 1025.3 - 0.0
14/09:00am 16.7 14.3 12.8 78 2.2 SE 17 24 9 13 1025.1 1025.1 0.0
14/08:30am 16.3 13.4 13.0 81 1.8 SSE 20 26 11 14 1024.8 - 0.0
14/08:00am 15.8 12.5 12.9 83 1.6 SSE 22 30 12 16 1024.6 - 0.0
14/07:30am 15.5 12.4 13.3 87 1.2 SSE 22 30 12 16 1024.3 - 0.0
14/07:00am 15.4 11.8 13.1 86 1.3 SSE 24 30 13 16 1024.2 - 0.0
14/06:30am 15.5 12.3 13.2 86 1.3 SSE 22 28 12 15 1024.0 - 0.0
14/06:00am 15.7 12.1 13.2 85 1.4 SSE 24 30 13 16 1023.9 1023.9 0.0
14/05:30am 15.9 13.3 13.2 84 1.5 SSE 19 24 10 13 1023.8 - 0.0
14/05:00am 15.8 13.9 13.1 84 1.5 SE 15 22 8 12 1023.6 - 0.0
14/04:30am 15.9 13.5 12.5 80 1.9 SSE 17 22 9 12 1023.5 - 0.0
14/04:00am 15.8 13.3 12.2 79 2.0 SE 17 24 9 13 1023.4 - 0.0
14/03:30am 15.9 13.2 12.8 82 1.7 SSE 19 28 10 15 1023.4 - 0.0
14/03:00am 15.9 12.8 12.1 78 2.1 SSE 20 26 11 14 1023.5 1023.5 0.0
14/02:30am 15.8 12.7 12.2 79 2.0 SSE 20 26 11 14 1023.7 - 0.0
14/02:00am 15.6 13.1 12.2 80 1.9 SE 17 24 9 13 1023.9 - 0.0
14/01:30am 15.6 13.4 12.0 79 2.0 SE 15 22 8 12 1023.9 - 0.0
14/01:00am 15.6 13.8 12.0 79 2.0 SE 13 22 7 12 1023.8 - 0.0
14/12:30am 15.6 13.8 12.0 79 2.0 ESE 13 20 7 11 1023.7 - 0.0
14/12:00am 15.6 13.8 12.2 80 1.9 ESE 13 19 7 10 1023.9 1023.9 0.0
 
Date/Time
EST
Temp
°C
App
Temp
°C
Dew
Point
Rel
Hum
%
Delta-T
°C
Wind Press
QNH
hPa
Press
MSL
hPa
Rain
since 9 am
mm
Dir
 
Spd
km/h
Gust
km/h
Spd
kts
Gust
kts
13/11:30pm 15.7 13.4 11.9 78 2.1 ESE 15 22 8 12 1024.0 - 0.0
13/11:00pm 15.6 14.3 12.4 81 1.8 ESE 11 20 6 11 1024.1 - 0.0
13/10:30pm 15.7 13.1 12.1 79 2.0 ESE 17 22 9 12 1024.0 - 0.0
13/10:00pm 15.9 13.5 12.5 80 1.9 SE 17 26 9 14 1024.2 - 0.0
13/09:30pm 15.9 13.1 12.5 80 1.9 SE 19 28 10 15 1024.1 - 0.0
13/09:00pm 15.9 13.0 12.8 82 1.7 SE 20 30 11 16 1024.0 1024.0 0.0
13/08:30pm 16.0 12.7 12.7 81 1.8 SE 22 32 12 17 1023.9 - 0.0
13/08:00pm 15.9 12.5 12.6 81 1.8 SE 22 32 12 17 1023.8 - 0.0
13/07:30pm 16.2 13.2 12.7 80 1.9 SE 20 28 11 15 1023.6 - 0.0
13/07:00pm 16.4 12.4 12.9 80 1.9 SSE 26 32 14 17 1023.3 - 0.0
13/06:30pm 16.1 12.4 12.8 81 1.8 SSE 24 33 13 18 1022.9 - 0.0
13/06:00pm 16.2 13.2 12.7 80 1.9 SE 20 30 11 16 1022.4 1022.4 0.0
13/05:30pm 16.5 13.7 13.2 81 1.8 SE 20 30 11 16 1022.2 - 0.0
13/05:00pm 16.7 13.5 13.0 79 2.1 SSE 22 32 12 17 1021.9 - 0.0
13/04:30pm 17.2 14.5 13.5 79 2.1 SSE 20 30 11 16 1021.7 - 0.0
13/04:00pm 17.7 15.1 13.2 75 2.5 SSE 19 22 10 12 1021.5 - 0.0
13/03:30pm 18.1 17.0 13.0 72 2.9 ESE 11 17 6 9 1021.4 - 0.0
13/03:00pm 17.8 16.7 13.1 74 2.6 ESE 11 17 6 9 1021.5 1021.5 0.0
13/02:30pm 18.2 16.4 13.3 73 2.8 SE 15 22 8 12 1021.5 - 0.0

Other Formats:

Comma delimited format used in spreadsheet applications
http://www.bom.gov.au/fwo/IDV60801/IDV60801.94826.axf

JavaScript Object Notation format (JSON) in row-major order
http://www.bom.gov.au/fwo/IDV60801/IDV60801.94826.json